sensor_id;sensor_type;location;lat;lon;timestamp;temperature;humidity
8676;DHT22;4375;52.486;13.424;2022-10-29T00:00:44;16.00;99.90
8676;DHT22;4375;52.486;13.424;2022-10-29T00:03:13;16.00;99.90
8676;DHT22;4375;52.486;13.424;2022-10-29T00:05:38;16.00;99.90
8676;DHT22;4375;52.486;13.424;2022-10-29T00:08:04;16.00;99.90
8676;DHT22;4375;52.486;13.424;2022-10-29T00:10:32;16.00;99.90
8676;DHT22;4375;52.486;13.424;2022-10-29T00:13:02;16.00;99.90
8676;DHT22;4375;52.486;13.424;2022-10-29T00:15:30;16.00;99.90
8676;DHT22;4375;52.486;13.424;2022-10-29T00:17:58;15.90;99.90
8676;DHT22;4375;52.486;13.424;2022-10-29T00:20:24;15.90;99.90
8676;DHT22;4375;52.486;13.424;2022-10-29T00:22:52;15.90;99.90
8676;DHT22;4375;52.486;13.424;2022-10-29T00:25:18;15.90;99.90
8676;DHT22;4375;52.486;13.424;2022-10-29T00:27:44;15.90;99.90
8676;DHT22;4375;52.486;13.424;2022-10-29T00:30:10;15.90;99.90
8676;DHT22;4375;52.486;13.424;2022-10-29T00:32:36;15.80;99.90
8676;DHT22;4375;52.486;13.424;2022-10-29T00:35:02;15.80;99.90
8676;DHT22;4375;52.486;13.424;2022-10-29T00:37:27;15.80;99.90
8676;DHT22;4375;52.486;13.424;2022-10-29T00:39:53;15.70;99.90
8676;DHT22;4375;52.486;13.424;2022-10-29T00:42:19;15.70;99.90
8676;DHT22;4375;52.486;13.424;2022-10-29T00:44:44;15.70;99.90
8676;DHT22;4375;52.486;13.424;2022-10-29T00:47:21;15.70;99.90
8676;DHT22;4375;52.486;13.424;2022-10-29T00:49:55;15.70;99.90
8676;DHT22;4375;52.486;13.424;2022-10-29T00:52:22;15.70;99.90
8676;DHT22;4375;52.486;13.424;2022-10-29T00:54:50;15.70;99.90
8676;DHT22;4375;52.486;13.424;2022-10-29T00:57:19;15.70;99.90
8676;DHT22;4375;52.486;13.424;2022-10-29T00:59:47;15.70;99.90
8676;DHT22;4375;52.486;13.424;2022-10-29T01:02:14;15.70;99.90
8676;DHT22;4375;52.486;13.424;2022-10-29T01:04:41;15.70;99.90
8676;DHT22;4375;52.486;13.424;2022-10-29T01:07:07;15.70;99.90
8676;DHT22;4375;52.486;13.424;2022-10-29T01:09:32;15.70;99.90
8676;DHT22;4375;52.486;13.424;2022-10-29T01:34:42;15.70;99.90
8676;DHT22;4375;52.486;13.424;2022-10-29T01:39:59;15.70;99.90
8676;DHT22;4375;52.486;13.424;2022-10-29T01:42:38;15.70;99.90
8676;DHT22;4375;52.486;13.424;2022-10-29T01:47:53;15.70;99.90
8676;DHT22;4375;52.486;13.424;2022-10-29T01:50:21;15.60;99.90
8676;DHT22;4375;52.486;13.424;2022-10-29T01:52:48;15.60;99.90
8676;DHT22;4375;52.486;13.424;2022-10-29T01:55:22;15.60;99.90
8676;DHT22;4375;52.486;13.424;2022-10-29T01:57:52;15.50;99.90
8676;DHT22;4375;52.486;13.424;2022-10-29T02:00:19;15.50;99.90
8676;DHT22;4375;52.486;13.424;2022-10-29T02:10:50;15.40;99.90
8676;DHT22;4375;52.486;13.424;2022-10-29T02:13:18;15.40;99.90
8676;DHT22;4375;52.486;13.424;2022-10-29T02:15:56;15.40;99.90
8676;DHT22;4375;52.486;13.424;2022-10-29T02:18:23;15.40;99.90
8676;DHT22;4375;52.486;13.424;2022-10-29T02:20:49;15.40;99.90
8676;DHT22;4375;52.486;13.424;2022-10-29T02:23:15;15.40;99.90
8676;DHT22;4375;52.486;13.424;2022-10-29T02:25:42;15.40;99.90
8676;DHT22;4375;52.486;13.424;2022-10-29T02:28:07;15.40;99.90
8676;DHT22;4375;52.486;13.424;2022-10-29T02:30:33;15.40;99.90
8676;DHT22;4375;52.486;13.424;2022-10-29T02:32:59;15.40;99.90
8676;DHT22;4375;52.486;13.424;2022-10-29T02:35:28;15.40;99.90
8676;DHT22;4375;52.486;13.424;2022-10-29T02:37:53;15.30;99.90
8676;DHT22;4375;52.486;13.424;2022-10-29T02:40:19;15.30;99.90
8676;DHT22;4375;52.486;13.424;2022-10-29T02:42:48;15.30;99.90
8676;DHT22;4375;52.486;13.424;2022-10-29T02:45:13;15.30;99.90
8676;DHT22;4375;52.486;13.424;2022-10-29T02:47:39;15.30;99.90
8676;DHT22;4375;52.486;13.424;2022-10-29T02:50:05;15.40;99.90
8676;DHT22;4375;52.486;13.424;2022-10-29T02:52:31;15.40;99.90
8676;DHT22;4375;52.486;13.424;2022-10-29T02:54:57;15.40;99.90
8676;DHT22;4375;52.486;13.424;2022-10-29T02:57:22;15.40;99.90
8676;DHT22;4375;52.486;13.424;2022-10-29T02:59:48;15.30;99.90
8676;DHT22;4375;52.486;13.424;2022-10-29T03:02:14;15.30;99.90
8676;DHT22;4375;52.486;13.424;2022-10-29T03:04:39;15.40;99.90
8676;DHT22;4375;52.486;13.424;2022-10-29T03:07:05;15.30;99.90
8676;DHT22;4375;52.486;13.424;2022-10-29T03:09:31;15.30;99.90
8676;DHT22;4375;52.486;13.424;2022-10-29T03:11:57;15.30;99.90
8676;DHT22;4375;52.486;13.424;2022-10-29T03:14:22;15.30;99.90
8676;DHT22;4375;52.486;13.424;2022-10-29T03:16:48;15.30;99.90
8676;DHT22;4375;52.486;13.424;2022-10-29T03:19:14;15.30;99.90
8676;DHT22;4375;52.486;13.424;2022-10-29T03:21:39;15.30;99.90
8676;DHT22;4375;52.486;13.424;2022-10-29T03:24:05;15.20;99.90
8676;DHT22;4375;52.486;13.424;2022-10-29T03:26:31;15.20;99.90
8676;DHT22;4375;52.486;13.424;2022-10-29T03:28:56;15.20;99.90
8676;DHT22;4375;52.486;13.424;2022-10-29T03:31:22;15.20;99.90
8676;DHT22;4375;52.486;13.424;2022-10-29T03:33:48;15.20;99.90
8676;DHT22;4375;52.486;13.424;2022-10-29T03:36:13;15.20;99.90
8676;DHT22;4375;52.486;13.424;2022-10-29T03:38:39;15.10;99.90
8676;DHT22;4375;52.486;13.424;2022-10-29T03:41:04;15.10;99.90
8676;DHT22;4375;52.486;13.424;2022-10-29T03:43:35;15.10;99.90
8676;DHT22;4375;52.486;13.424;2022-10-29T03:46:01;15.10;99.90
8676;DHT22;4375;52.486;13.424;2022-10-29T03:48:27;15.10;99.90
8676;DHT22;4375;52.486;13.424;2022-10-29T03:51:02;15.10;99.90
8676;DHT22;4375;52.486;13.424;2022-10-29T03:53:30;15.00;99.90
8676;DHT22;4375;52.486;13.424;2022-10-29T03:55:56;15.00;99.90
8676;DHT22;4375;52.486;13.424;2022-10-29T03:58:23;15.00;99.90
8676;DHT22;4375;52.486;13.424;2022-10-29T04:00:57;15.00;99.90
8676;DHT22;4375;52.486;13.424;2022-10-29T04:03:24;15.00;99.90
8676;DHT22;4375;52.486;13.424;2022-10-29T04:05:50;15.00;99.90
8676;DHT22;4375;52.486;13.424;2022-10-29T04:08:16;15.00;99.90
8676;DHT22;4375;52.486;13.424;2022-10-29T04:10:46;15.00;99.90
8676;DHT22;4375;52.486;13.424;2022-10-29T04:13:13;15.00;99.90
8676;DHT22;4375;52.486;13.424;2022-10-29T04:15:39;15.00;99.90
8676;DHT22;4375;52.486;13.424;2022-10-29T04:18:06;15.00;99.90
8676;DHT22;4375;52.486;13.424;2022-10-29T04:20:32;14.90;99.90
8676;DHT22;4375;52.486;13.424;2022-10-29T04:22:57;14.90;99.90
8676;DHT22;4375;52.486;13.424;2022-10-29T04:25:23;14.90;99.90
8676;DHT22;4375;52.486;13.424;2022-10-29T04:27:48;14.90;99.90
8676;DHT22;4375;52.486;13.424;2022-10-29T04:30:14;14.90;99.90
8676;DHT22;4375;52.486;13.424;2022-10-29T04:32:40;14.90;99.90
8676;DHT22;4375;52.486;13.424;2022-10-29T04:35:05;14.90;99.90
8676;DHT22;4375;52.486;13.424;2022-10-29T04:37:31;14.90;99.90
8676;DHT22;4375;52.486;13.424;2022-10-29T04:39:57;14.90;99.90
8676;DHT22;4375;52.486;13.424;2022-10-29T04:42:22;14.90;99.90
8676;DHT22;4375;52.486;13.424;2022-10-29T04:44:48;14.90;99.90
8676;DHT22;4375;52.486;13.424;2022-10-29T04:47:13;14.80;99.90
8676;DHT22;4375;52.486;13.424;2022-10-29T04:49:39;14.80;99.90
8676;DHT22;4375;52.486;13.424;2022-10-29T04:52:05;14.80;99.90
8676;DHT22;4375;52.486;13.424;2022-10-29T04:54:30;14.80;99.90
8676;DHT22;4375;52.486;13.424;2022-10-29T04:56:56;14.80;99.90
8676;DHT22;4375;52.486;13.424;2022-10-29T04:59:22;14.80;99.90
8676;DHT22;4375;52.486;13.424;2022-10-29T05:01:47;14.80;99.90
8676;DHT22;4375;52.486;13.424;2022-10-29T05:04:13;14.80;99.90
8676;DHT22;4375;52.486;13.424;2022-10-29T05:06:38;14.80;99.90
8676;DHT22;4375;52.486;13.424;2022-10-29T05:09:04;14.80;99.90
8676;DHT22;4375;52.486;13.424;2022-10-29T05:11:30;14.70;99.90
8676;DHT22;4375;52.486;13.424;2022-10-29T05:13:55;14.70;99.90
8676;DHT22;4375;52.486;13.424;2022-10-29T05:16:21;14.70;99.90
8676;DHT22;4375;52.486;13.424;2022-10-29T05:18:47;14.70;99.90
8676;DHT22;4375;52.486;13.424;2022-10-29T05:21:13;14.70;99.90
8676;DHT22;4375;52.486;13.424;2022-10-29T05:23:39;14.70;99.90
8676;DHT22;4375;52.486;13.424;2022-10-29T05:26:05;14.70;99.90
8676;DHT22;4375;52.486;13.424;2022-10-29T05:28:30;14.70;99.90
8676;DHT22;4375;52.486;13.424;2022-10-29T05:30:59;14.70;99.90
8676;DHT22;4375;52.486;13.424;2022-10-29T05:33:25;14.70;99.90
8676;DHT22;4375;52.486;13.424;2022-10-29T05:35:51;14.70;99.90
8676;DHT22;4375;52.486;13.424;2022-10-29T05:38:17;14.70;99.90
8676;DHT22;4375;52.486;13.424;2022-10-29T05:40:43;14.60;99.90
8676;DHT22;4375;52.486;13.424;2022-10-29T05:43:10;14.50;99.90
8676;DHT22;4375;52.486;13.424;2022-10-29T05:45:36;14.50;99.90
8676;DHT22;4375;52.486;13.424;2022-10-29T05:48:03;14.50;99.90
8676;DHT22;4375;52.486;13.424;2022-10-29T05:50:30;14.40;99.90
8676;DHT22;4375;52.486;13.424;2022-10-29T05:53:06;14.40;99.90
8676;DHT22;4375;52.486;13.424;2022-10-29T05:55:34;14.40;99.90
8676;DHT22;4375;52.486;13.424;2022-10-29T05:58:05;14.40;99.90
8676;DHT22;4375;52.486;13.424;2022-10-29T06:00:34;14.40;99.90
8676;DHT22;4375;52.486;13.424;2022-10-29T06:03:00;14.40;99.90
8676;DHT22;4375;52.486;13.424;2022-10-29T06:05:26;14.40;99.90
8676;DHT22;4375;52.486;13.424;2022-10-29T06:07:53;14.40;99.90
8676;DHT22;4375;52.486;13.424;2022-10-29T06:10:19;14.40;99.90
8676;DHT22;4375;52.486;13.424;2022-10-29T06:12:44;14.30;99.90
8676;DHT22;4375;52.486;13.424;2022-10-29T06:15:10;14.30;99.90
8676;DHT22;4375;52.486;13.424;2022-10-29T06:17:42;14.30;99.90
8676;DHT22;4375;52.486;13.424;2022-10-29T06:20:09;14.30;99.90
8676;DHT22;4375;52.486;13.424;2022-10-29T06:22:35;14.30;99.90
8676;DHT22;4375;52.486;13.424;2022-10-29T06:25:01;14.30;99.90
8676;DHT22;4375;52.486;13.424;2022-10-29T06:27:27;14.30;99.90
8676;DHT22;4375;52.486;13.424;2022-10-29T06:29:52;14.30;99.90
8676;DHT22;4375;52.486;13.424;2022-10-29T06:32:18;14.30;99.90
8676;DHT22;4375;52.486;13.424;2022-10-29T06:34:44;14.40;99.90
8676;DHT22;4375;52.486;13.424;2022-10-29T06:37:09;14.40;99.90
8676;DHT22;4375;52.486;13.424;2022-10-29T06:39:35;14.50;99.90
8676;DHT22;4375;52.486;13.424;2022-10-29T06:42:01;14.50;99.90
8676;DHT22;4375;52.486;13.424;2022-10-29T06:44:27;14.50;99.90
8676;DHT22;4375;52.486;13.424;2022-10-29T06:46:52;14.60;99.90
8676;DHT22;4375;52.486;13.424;2022-10-29T06:49:19;14.60;99.90
8676;DHT22;4375;52.486;13.424;2022-10-29T06:51:44;14.60;99.90
8676;DHT22;4375;52.486;13.424;2022-10-29T06:54:10;14.70;99.90
8676;DHT22;4375;52.486;13.424;2022-10-29T06:56:36;14.70;99.90
8676;DHT22;4375;52.486;13.424;2022-10-29T06:59:01;14.70;99.90
8676;DHT22;4375;52.486;13.424;2022-10-29T07:01:27;14.80;99.90
8676;DHT22;4375;52.486;13.424;2022-10-29T07:03:54;14.80;99.90
8676;DHT22;4375;52.486;13.424;2022-10-29T07:06:20;14.80;99.90
8676;DHT22;4375;52.486;13.424;2022-10-29T07:08:46;14.90;99.90
8676;DHT22;4375;52.486;13.424;2022-10-29T07:11:12;15.00;99.90
8676;DHT22;4375;52.486;13.424;2022-10-29T07:13:37;15.00;99.90
8676;DHT22;4375;52.486;13.424;2022-10-29T07:16:03;15.10;99.90
8676;DHT22;4375;52.486;13.424;2022-10-29T07:18:29;15.10;99.90
8676;DHT22;4375;52.486;13.424;2022-10-29T07:20:57;15.20;99.90
8676;DHT22;4375;52.486;13.424;2022-10-29T07:23:22;15.20;99.90
8676;DHT22;4375;52.486;13.424;2022-10-29T07:25:51;15.20;99.90
8676;DHT22;4375;52.486;13.424;2022-10-29T07:28:18;15.30;99.90
8676;DHT22;4375;52.486;13.424;2022-10-29T07:30:48;15.30;99.90
8676;DHT22;4375;52.486;13.424;2022-10-29T07:33:15;15.30;99.90
8676;DHT22;4375;52.486;13.424;2022-10-29T07:35:41;15.40;99.90
8676;DHT22;4375;52.486;13.424;2022-10-29T07:38:08;15.40;99.90
8676;DHT22;4375;52.486;13.424;2022-10-29T07:40:34;15.50;99.90
8676;DHT22;4375;52.486;13.424;2022-10-29T07:43:00;15.50;99.90
8676;DHT22;4375;52.486;13.424;2022-10-29T07:45:26;15.60;99.90
8676;DHT22;4375;52.486;13.424;2022-10-29T07:48:02;15.60;99.90
8676;DHT22;4375;52.486;13.424;2022-10-29T07:50:29;15.60;99.90
8676;DHT22;4375;52.486;13.424;2022-10-29T07:52:54;15.70;99.90
8676;DHT22;4375;52.486;13.424;2022-10-29T07:55:20;15.80;99.90
8676;DHT22;4375;52.486;13.424;2022-10-29T07:57:46;15.90;99.90
8676;DHT22;4375;52.486;13.424;2022-10-29T08:00:12;16.00;99.90
8676;DHT22;4375;52.486;13.424;2022-10-29T08:02:39;16.10;99.90
8676;DHT22;4375;52.486;13.424;2022-10-29T08:05:07;16.20;99.90
8676;DHT22;4375;52.486;13.424;2022-10-29T08:07:32;16.20;99.90
8676;DHT22;4375;52.486;13.424;2022-10-29T08:09:58;16.40;99.90
8676;DHT22;4375;52.486;13.424;2022-10-29T08:12:24;16.40;99.90
8676;DHT22;4375;52.486;13.424;2022-10-29T08:14:49;16.50;99.90
8676;DHT22;4375;52.486;13.424;2022-10-29T08:17:15;16.60;99.90
8676;DHT22;4375;52.486;13.424;2022-10-29T08:19:40;16.60;99.90
8676;DHT22;4375;52.486;13.424;2022-10-29T08:22:06;16.70;99.90
8676;DHT22;4375;52.486;13.424;2022-10-29T08:24:32;16.80;99.90
8676;DHT22;4375;52.486;13.424;2022-10-29T08:26:57;16.80;99.90
8676;DHT22;4375;52.486;13.424;2022-10-29T08:29:23;16.90;99.90
8676;DHT22;4375;52.486;13.424;2022-10-29T08:31:49;17.00;99.90
8676;DHT22;4375;52.486;13.424;2022-10-29T08:34:14;17.00;99.90
8676;DHT22;4375;52.486;13.424;2022-10-29T08:36:40;17.10;99.90
8676;DHT22;4375;52.486;13.424;2022-10-29T08:39:06;17.20;99.90
8676;DHT22;4375;52.486;13.424;2022-10-29T08:46:46;17.40;99.90
8676;DHT22;4375;52.486;13.424;2022-10-29T08:49:17;17.50;99.90
8676;DHT22;4375;52.486;13.424;2022-10-29T08:51:53;17.60;99.90
8676;DHT22;4375;52.486;13.424;2022-10-29T08:54:21;17.70;99.90
8676;DHT22;4375;52.486;13.424;2022-10-29T08:56:52;17.70;99.90
8676;DHT22;4375;52.486;13.424;2022-10-29T08:59:22;17.80;99.90
8676;DHT22;4375;52.486;13.424;2022-10-29T09:01:50;17.90;99.90
8676;DHT22;4375;52.486;13.424;2022-10-29T09:04:32;18.00;99.90
8676;DHT22;4375;52.486;13.424;2022-10-29T09:07:28;18.00;99.90
8676;DHT22;4375;52.486;13.424;2022-10-29T09:21:40;18.10;99.90
8676;DHT22;4375;52.486;13.424;2022-10-29T09:24:13;18.20;99.90
8676;DHT22;4375;52.486;13.424;2022-10-29T09:32:33;18.70;99.90
8676;DHT22;4375;52.486;13.424;2022-10-29T09:35:15;18.90;99.90
8676;DHT22;4375;52.486;13.424;2022-10-29T09:37:57;19.10;99.90
8676;DHT22;4375;52.486;13.424;2022-10-29T09:40:33;19.10;99.90
8676;DHT22;4375;52.486;13.424;2022-10-29T09:43:04;19.20;99.90
8676;DHT22;4375;52.486;13.424;2022-10-29T09:45:51;19.20;99.90
8676;DHT22;4375;52.486;13.424;2022-10-29T09:48:36;19.20;99.90
8676;DHT22;4375;52.486;13.424;2022-10-29T09:54:06;19.40;99.90
8676;DHT22;4375;52.486;13.424;2022-10-29T09:56:32;19.40;99.90
8676;DHT22;4375;52.486;13.424;2022-10-29T09:59:23;19.50;99.90
8676;DHT22;4375;52.486;13.424;2022-10-29T10:01:50;19.30;99.90
8676;DHT22;4375;52.486;13.424;2022-10-29T10:04:36;19.30;99.90
8676;DHT22;4375;52.486;13.424;2022-10-29T10:07:15;19.40;99.90
8676;DHT22;4375;52.486;13.424;2022-10-29T10:09:55;19.30;99.90
8676;DHT22;4375;52.486;13.424;2022-10-29T10:12:24;19.30;99.90
8676;DHT22;4375;52.486;13.424;2022-10-29T10:15:05;19.30;99.90
8676;DHT22;4375;52.486;13.424;2022-10-29T10:22:53;19.20;99.90
8676;DHT22;4375;52.486;13.424;2022-10-29T10:25:36;19.20;99.90
8676;DHT22;4375;52.486;13.424;2022-10-29T10:33:30;19.50;99.90
8676;DHT22;4375;52.486;13.424;2022-10-29T10:36:01;19.70;99.90
8676;DHT22;4375;52.486;13.424;2022-10-29T10:38:35;19.70;99.90
8676;DHT22;4375;52.486;13.424;2022-10-29T10:41:07;19.50;99.90
8676;DHT22;4375;52.486;13.424;2022-10-29T10:43:33;19.40;99.90
8676;DHT22;4375;52.486;13.424;2022-10-29T10:46:04;19.20;99.90
8676;DHT22;4375;52.486;13.424;2022-10-29T10:48:30;19.10;99.90
8676;DHT22;4375;52.486;13.424;2022-10-29T10:51:18;19.00;99.90
8676;DHT22;4375;52.486;13.424;2022-10-29T10:53:44;19.00;99.90
8676;DHT22;4375;52.486;13.424;2022-10-29T10:56:21;18.90;99.90
8676;DHT22;4375;52.486;13.424;2022-10-29T10:59:05;19.00;99.90
8676;DHT22;4375;52.486;13.424;2022-10-29T11:01:44;19.00;99.90
8676;DHT22;4375;52.486;13.424;2022-10-29T11:06:40;19.10;99.90
8676;DHT22;4375;52.486;13.424;2022-10-29T11:09:29;19.00;99.90
8676;DHT22;4375;52.486;13.424;2022-10-29T11:14:58;19.00;99.90
8676;DHT22;4375;52.486;13.424;2022-10-29T11:17:30;19.00;99.90
8676;DHT22;4375;52.486;13.424;2022-10-29T11:40:00;18.90;99.90
8676;DHT22;4375;52.486;13.424;2022-10-29T11:42:30;18.90;99.90
8676;DHT22;4375;52.486;13.424;2022-10-29T11:44:57;18.90;99.90
8676;DHT22;4375;52.486;13.424;2022-10-29T11:48:02;18.90;99.90
8676;DHT22;4375;52.486;13.424;2022-10-29T11:50:46;18.90;99.90
8676;DHT22;4375;52.486;13.424;2022-10-29T11:59:12;18.90;99.90
8676;DHT22;4375;52.486;13.424;2022-10-29T12:02:00;18.90;99.90
8676;DHT22;4375;52.486;13.424;2022-10-29T12:04:40;18.90;99.90
8676;DHT22;4375;52.486;13.424;2022-10-29T12:10:20;19.10;99.90
8676;DHT22;4375;52.486;13.424;2022-10-29T12:15:35;19.50;99.90
8676;DHT22;4375;52.486;13.424;2022-10-29T12:18:09;19.60;99.90
8676;DHT22;4375;52.486;13.424;2022-10-29T12:20:49;19.70;99.90
8676;DHT22;4375;52.486;13.424;2022-10-29T12:23:23;19.80;99.90
8676;DHT22;4375;52.486;13.424;2022-10-29T12:28:59;19.90;99.90
8676;DHT22;4375;52.486;13.424;2022-10-29T12:39:44;19.90;99.90
8676;DHT22;4375;52.486;13.424;2022-10-29T12:42:21;19.90;99.90
8676;DHT22;4375;52.486;13.424;2022-10-29T12:45:03;19.80;99.90
8676;DHT22;4375;52.486;13.424;2022-10-29T12:47:53;19.70;99.90
8676;DHT22;4375;52.486;13.424;2022-10-29T12:56:32;19.50;99.90
8676;DHT22;4375;52.486;13.424;2022-10-29T13:04:32;19.50;99.90
8676;DHT22;4375;52.486;13.424;2022-10-29T13:09:42;19.50;99.90
8676;DHT22;4375;52.486;13.424;2022-10-29T13:12:12;19.50;99.90
8676;DHT22;4375;52.486;13.424;2022-10-29T13:15:02;19.50;99.90
8676;DHT22;4375;52.486;13.424;2022-10-29T13:17:37;19.50;99.90
8676;DHT22;4375;52.486;13.424;2022-10-29T13:20:19;19.40;99.90
8676;DHT22;4375;52.486;13.424;2022-10-29T13:28:01;19.30;99.90
8676;DHT22;4375;52.486;13.424;2022-10-29T13:33:48;19.30;99.90
8676;DHT22;4375;52.486;13.424;2022-10-29T13:41:22;19.20;99.90
8676;DHT22;4375;52.486;13.424;2022-10-29T13:44:02;19.20;99.90
8676;DHT22;4375;52.486;13.424;2022-10-29T13:49:43;19.40;99.90
8676;DHT22;4375;52.486;13.424;2022-10-29T13:52:18;19.40;99.90
8676;DHT22;4375;52.486;13.424;2022-10-29T13:55:00;19.50;99.90
8676;DHT22;4375;52.486;13.424;2022-10-29T13:57:40;19.50;99.90
8676;DHT22;4375;52.486;13.424;2022-10-29T14:00:17;19.50;99.90
8676;DHT22;4375;52.486;13.424;2022-10-29T14:02:51;19.50;99.90
8676;DHT22;4375;52.486;13.424;2022-10-29T14:05:48;19.40;99.90
8676;DHT22;4375;52.486;13.424;2022-10-29T14:13:28;19.30;99.90
8676;DHT22;4375;52.486;13.424;2022-10-29T14:18:37;19.30;99.90
8676;DHT22;4375;52.486;13.424;2022-10-29T14:21:06;19.30;99.90
8676;DHT22;4375;52.486;13.424;2022-10-29T14:23:36;19.20;99.90
8676;DHT22;4375;52.486;13.424;2022-10-29T14:26:14;19.20;99.90
8676;DHT22;4375;52.486;13.424;2022-10-29T14:28:40;19.10;99.90
8676;DHT22;4375;52.486;13.424;2022-10-29T14:31:14;19.10;99.90
8676;DHT22;4375;52.486;13.424;2022-10-29T14:33:51;19.00;99.90
8676;DHT22;4375;52.486;13.424;2022-10-29T14:36:30;19.00;99.90
8676;DHT22;4375;52.486;13.424;2022-10-29T14:39:13;18.90;99.90
8676;DHT22;4375;52.486;13.424;2022-10-29T14:41:39;18.90;99.90
8676;DHT22;4375;52.486;13.424;2022-10-29T14:46:33;18.80;99.90
8676;DHT22;4375;52.486;13.424;2022-10-29T14:49:27;18.80;99.90
8676;DHT22;4375;52.486;13.424;2022-10-29T14:54:46;18.80;99.90
8676;DHT22;4375;52.486;13.424;2022-10-29T14:57:19;18.80;99.90
8676;DHT22;4375;52.486;13.424;2022-10-29T14:59:58;18.80;99.90
8676;DHT22;4375;52.486;13.424;2022-10-29T15:02:30;18.80;99.90
8676;DHT22;4375;52.486;13.424;2022-10-29T15:04:58;18.80;99.90
8676;DHT22;4375;52.486;13.424;2022-10-29T15:07:33;18.80;99.90
8676;DHT22;4375;52.486;13.424;2022-10-29T15:12:40;18.80;99.90
8676;DHT22;4375;52.486;13.424;2022-10-29T15:15:08;18.80;99.90
8676;DHT22;4375;52.486;13.424;2022-10-29T15:17:34;18.80;99.90
8676;DHT22;4375;52.486;13.424;2022-10-29T15:20:05;18.80;99.90
8676;DHT22;4375;52.486;13.424;2022-10-29T15:22:37;18.70;99.90
8676;DHT22;4375;52.486;13.424;2022-10-29T15:25:20;18.70;99.90
8676;DHT22;4375;52.486;13.424;2022-10-29T15:27:47;18.60;99.90
8676;DHT22;4375;52.486;13.424;2022-10-29T15:30:18;18.60;99.90
8676;DHT22;4375;52.486;13.424;2022-10-29T15:32:44;18.50;99.90
8676;DHT22;4375;52.486;13.424;2022-10-29T15:35:10;18.50;99.90
8676;DHT22;4375;52.486;13.424;2022-10-29T15:37:41;18.40;99.90
8676;DHT22;4375;52.486;13.424;2022-10-29T15:42:41;18.30;99.90
8676;DHT22;4375;52.486;13.424;2022-10-29T15:47:37;18.20;99.90
8676;DHT22;4375;52.486;13.424;2022-10-29T15:50:05;18.10;99.90
8676;DHT22;4375;52.486;13.424;2022-10-29T15:52:58;18.10;99.90
8676;DHT22;4375;52.486;13.424;2022-10-29T15:55:31;18.10;99.90
8676;DHT22;4375;52.486;13.424;2022-10-29T15:58:09;18.10;99.90
8676;DHT22;4375;52.486;13.424;2022-10-29T16:00:35;18.00;99.90
8676;DHT22;4375;52.486;13.424;2022-10-29T16:03:15;18.00;99.90
8676;DHT22;4375;52.486;13.424;2022-10-29T16:05:42;17.90;99.90
8676;DHT22;4375;52.486;13.424;2022-10-29T16:08:32;17.90;99.90
8676;DHT22;4375;52.486;13.424;2022-10-29T16:11:00;17.90;99.90
8676;DHT22;4375;52.486;13.424;2022-10-29T16:13:28;17.90;99.90
8676;DHT22;4375;52.486;13.424;2022-10-29T16:15:54;17.90;99.90
8676;DHT22;4375;52.486;13.424;2022-10-29T16:18:21;17.90;99.90
8676;DHT22;4375;52.486;13.424;2022-10-29T16:20:47;17.90;99.90
8676;DHT22;4375;52.486;13.424;2022-10-29T16:23:13;17.90;99.90
8676;DHT22;4375;52.486;13.424;2022-10-29T16:25:39;17.90;99.90
8676;DHT22;4375;52.486;13.424;2022-10-29T16:28:08;17.90;99.90
8676;DHT22;4375;52.486;13.424;2022-10-29T16:30:36;17.90;99.90
8676;DHT22;4375;52.486;13.424;2022-10-29T16:33:02;17.90;99.90
8676;DHT22;4375;52.486;13.424;2022-10-29T16:35:28;17.90;99.90
8676;DHT22;4375;52.486;13.424;2022-10-29T16:37:56;17.90;99.90
8676;DHT22;4375;52.486;13.424;2022-10-29T16:40:24;17.80;99.90
8676;DHT22;4375;52.486;13.424;2022-10-29T16:42:50;17.80;99.90
8676;DHT22;4375;52.486;13.424;2022-10-29T16:45:25;17.80;99.90
8676;DHT22;4375;52.486;13.424;2022-10-29T16:47:51;17.80;99.90
8676;DHT22;4375;52.486;13.424;2022-10-29T16:50:20;17.70;99.90
8676;DHT22;4375;52.486;13.424;2022-10-29T16:52:45;17.70;99.90
8676;DHT22;4375;52.486;13.424;2022-10-29T16:55:12;17.70;99.90
8676;DHT22;4375;52.486;13.424;2022-10-29T16:57:38;17.70;99.90
8676;DHT22;4375;52.486;13.424;2022-10-29T17:00:05;17.70;99.90
8676;DHT22;4375;52.486;13.424;2022-10-29T17:02:31;17.70;99.90
8676;DHT22;4375;52.486;13.424;2022-10-29T17:04:57;17.70;99.90
8676;DHT22;4375;52.486;13.424;2022-10-29T17:07:22;17.60;99.90
8676;DHT22;4375;52.486;13.424;2022-10-29T17:09:48;17.60;99.90
8676;DHT22;4375;52.486;13.424;2022-10-29T17:12:14;17.60;99.90
8676;DHT22;4375;52.486;13.424;2022-10-29T17:14:39;17.60;99.90
8676;DHT22;4375;52.486;13.424;2022-10-29T17:17:05;17.60;99.90
8676;DHT22;4375;52.486;13.424;2022-10-29T17:19:31;17.60;99.90
8676;DHT22;4375;52.486;13.424;2022-10-29T17:21:56;17.60;99.90
8676;DHT22;4375;52.486;13.424;2022-10-29T17:24:24;17.60;99.90
8676;DHT22;4375;52.486;13.424;2022-10-29T17:26:50;17.60;99.90
8676;DHT22;4375;52.486;13.424;2022-10-29T17:29:16;17.60;99.90
8676;DHT22;4375;52.486;13.424;2022-10-29T17:31:42;17.60;99.90
8676;DHT22;4375;52.486;13.424;2022-10-29T17:34:07;17.60;99.90
8676;DHT22;4375;52.486;13.424;2022-10-29T17:36:33;17.70;99.90
8676;DHT22;4375;52.486;13.424;2022-10-29T17:39:01;17.60;99.90
8676;DHT22;4375;52.486;13.424;2022-10-29T17:41:27;17.70;99.90
8676;DHT22;4375;52.486;13.424;2022-10-29T17:43:52;17.60;99.90
8676;DHT22;4375;52.486;13.424;2022-10-29T17:46:18;17.60;99.90
8676;DHT22;4375;52.486;13.424;2022-10-29T17:48:43;17.60;99.90
8676;DHT22;4375;52.486;13.424;2022-10-29T17:51:09;17.60;99.90
8676;DHT22;4375;52.486;13.424;2022-10-29T17:53:36;17.60;99.90
8676;DHT22;4375;52.486;13.424;2022-10-29T17:56:02;17.50;99.90
8676;DHT22;4375;52.486;13.424;2022-10-29T17:58:28;17.50;99.90
8676;DHT22;4375;52.486;13.424;2022-10-29T18:01:02;17.50;99.90
8676;DHT22;4375;52.486;13.424;2022-10-29T18:03:28;17.50;99.90
8676;DHT22;4375;52.486;13.424;2022-10-29T18:06:02;17.40;99.90
8676;DHT22;4375;52.486;13.424;2022-10-29T18:08:28;17.40;99.90
8676;DHT22;4375;52.486;13.424;2022-10-29T18:11:01;17.30;99.90
8676;DHT22;4375;52.486;13.424;2022-10-29T18:13:35;17.30;99.90
8676;DHT22;4375;52.486;13.424;2022-10-29T18:16:04;17.20;99.90
8676;DHT22;4375;52.486;13.424;2022-10-29T18:18:34;17.20;99.90
8676;DHT22;4375;52.486;13.424;2022-10-29T18:21:01;17.10;99.90
8676;DHT22;4375;52.486;13.424;2022-10-29T18:23:26;17.10;99.90
8676;DHT22;4375;52.486;13.424;2022-10-29T18:26:06;17.00;99.90
8676;DHT22;4375;52.486;13.424;2022-10-29T18:28:32;17.00;99.90
8676;DHT22;4375;52.486;13.424;2022-10-29T18:31:03;17.00;99.90
8676;DHT22;4375;52.486;13.424;2022-10-29T18:33:32;16.90;99.90
8676;DHT22;4375;52.486;13.424;2022-10-29T18:35:57;16.90;99.90
8676;DHT22;4375;52.486;13.424;2022-10-29T18:38:25;16.90;99.90
8676;DHT22;4375;52.486;13.424;2022-10-29T18:41:00;16.80;99.90
8676;DHT22;4375;52.486;13.424;2022-10-29T18:43:31;16.80;99.90
8676;DHT22;4375;52.486;13.424;2022-10-29T18:46:02;16.80;99.90
8676;DHT22;4375;52.486;13.424;2022-10-29T18:48:28;16.80;99.90
8676;DHT22;4375;52.486;13.424;2022-10-29T18:51:06;16.80;99.90